sensor_id;sensor_type;location;lat;lon;timestamp;P1;durP1;ratioP1;P2;durP2;ratioP2
12228;SDS011;6177;52.402;9.800;2022-11-20T00:02:04;22.83;;;14.57;;
12228;SDS011;6177;52.402;9.800;2022-11-20T00:04:49;18.10;;;14.73;;
12228;SDS011;6177;52.402;9.800;2022-11-20T00:07:33;18.57;;;15.30;;
12228;SDS011;6177;52.402;9.800;2022-11-20T00:10:18;16.13;;;14.33;;
12228;SDS011;6177;52.402;9.800;2022-11-20T00:13:03;15.10;;;13.40;;
12228;SDS011;6177;52.402;9.800;2022-11-20T00:15:47;16.73;;;14.60;;
12228;SDS011;6177;52.402;9.800;2022-11-20T00:18:33;16.60;;;14.80;;
12228;SDS011;6177;52.402;9.800;2022-11-20T00:21:22;15.97;;;14.37;;
12228;SDS011;6177;52.402;9.800;2022-11-20T00:24:09;18.37;;;15.87;;
12228;SDS011;6177;52.402;9.800;2022-11-20T00:26:54;15.87;;;14.17;;
12228;SDS011;6177;52.402;9.800;2022-11-20T00:29:39;14.70;;;13.03;;
12228;SDS011;6177;52.402;9.800;2022-11-20T00:32:24;16.97;;;14.60;;
12228;SDS011;6177;52.402;9.800;2022-11-20T00:35:08;17.10;;;14.47;;
12228;SDS011;6177;52.402;9.800;2022-11-20T00:37:53;15.23;;;13.70;;
12228;SDS011;6177;52.402;9.800;2022-11-20T00:40:37;16.20;;;14.60;;
12228;SDS011;6177;52.402;9.800;2022-11-20T00:43:22;15.07;;;13.47;;
12228;SDS011;6177;52.402;9.800;2022-11-20T00:46:12;14.73;;;13.17;;
12228;SDS011;6177;52.402;9.800;2022-11-20T00:48:58;15.33;;;13.73;;
12228;SDS011;6177;52.402;9.800;2022-11-20T00:51:42;17.53;;;14.17;;
12228;SDS011;6177;52.402;9.800;2022-11-20T00:54:27;15.10;;;13.57;;
12228;SDS011;6177;52.402;9.800;2022-11-20T00:57:12;14.43;;;12.93;;
12228;SDS011;6177;52.402;9.800;2022-11-20T00:59:56;15.53;;;13.27;;
12228;SDS011;6177;52.402;9.800;2022-11-20T01:02:41;14.13;;;12.63;;
12228;SDS011;6177;52.402;9.800;2022-11-20T01:05:26;14.70;;;13.17;;
12228;SDS011;6177;52.402;9.800;2022-11-20T01:08:10;16.20;;;14.50;;
12228;SDS011;6177;52.402;9.800;2022-11-20T01:10:58;14.37;;;12.73;;
12228;SDS011;6177;52.402;9.800;2022-11-20T01:13:47;14.70;;;12.80;;
12228;SDS011;6177;52.402;9.800;2022-11-20T01:16:34;14.57;;;12.27;;
12228;SDS011;6177;52.402;9.800;2022-11-20T01:19:23;14.53;;;13.07;;
12228;SDS011;6177;52.402;9.800;2022-11-20T01:22:08;14.67;;;12.93;;
12228;SDS011;6177;52.402;9.800;2022-11-20T01:24:53;13.03;;;11.83;;
12228;SDS011;6177;52.402;9.800;2022-11-20T01:27:37;15.27;;;13.23;;
12228;SDS011;6177;52.402;9.800;2022-11-20T01:30:22;14.10;;;12.70;;
12228;SDS011;6177;52.402;9.800;2022-11-20T01:33:06;14.57;;;12.20;;
12228;SDS011;6177;52.402;9.800;2022-11-20T01:35:52;14.83;;;13.27;;
12228;SDS011;6177;52.402;9.800;2022-11-20T01:38:37;13.33;;;11.87;;
12228;SDS011;6177;52.402;9.800;2022-11-20T01:41:22;14.37;;;12.87;;
12228;SDS011;6177;52.402;9.800;2022-11-20T01:47:30;15.80;;;13.87;;
12228;SDS011;6177;52.402;9.800;2022-11-20T01:50:21;15.23;;;13.00;;
12228;SDS011;6177;52.402;9.800;2022-11-20T01:53:09;15.00;;;13.40;;
12228;SDS011;6177;52.402;9.800;2022-11-20T01:55:59;13.70;;;12.30;;
12228;SDS011;6177;52.402;9.800;2022-11-20T01:58:47;14.50;;;12.77;;
12228;SDS011;6177;52.402;9.800;2022-11-20T02:01:36;13.67;;;12.10;;
12228;SDS011;6177;52.402;9.800;2022-11-20T02:04:22;13.73;;;12.33;;
12228;SDS011;6177;52.402;9.800;2022-11-20T02:07:08;13.80;;;12.40;;
12228;SDS011;6177;52.402;9.800;2022-11-20T02:09:53;13.10;;;11.37;;
12228;SDS011;6177;52.402;9.800;2022-11-20T02:12:37;12.70;;;11.40;;
12228;SDS011;6177;52.402;9.800;2022-11-20T02:15:40;12.90;;;11.70;;
12228;SDS011;6177;52.402;9.800;2022-11-20T02:18:26;13.23;;;11.93;;
12228;SDS011;6177;52.402;9.800;2022-11-20T02:21:24;13.40;;;11.83;;
12228;SDS011;6177;52.402;9.800;2022-11-20T02:24:14;12.07;;;10.87;;
12228;SDS011;6177;52.402;9.800;2022-11-20T02:27:03;12.23;;;11.13;;
12228;SDS011;6177;52.402;9.800;2022-11-20T02:29:55;12.60;;;11.33;;
12228;SDS011;6177;52.402;9.800;2022-11-20T02:32:43;12.10;;;10.83;;
12228;SDS011;6177;52.402;9.800;2022-11-20T02:38:12;12.67;;;11.17;;
12228;SDS011;6177;52.402;9.800;2022-11-20T02:40:58;11.87;;;10.67;;
12228;SDS011;6177;52.402;9.800;2022-11-20T02:43:42;11.77;;;10.57;;
12228;SDS011;6177;52.402;9.800;2022-11-20T02:46:27;11.67;;;10.47;;
12228;SDS011;6177;52.402;9.800;2022-11-20T02:49:12;11.57;;;10.53;;
12228;SDS011;6177;52.402;9.800;2022-11-20T02:51:56;12.03;;;10.93;;
12228;SDS011;6177;52.402;9.800;2022-11-20T02:54:41;12.57;;;11.00;;
12228;SDS011;6177;52.402;9.800;2022-11-20T02:57:26;11.93;;;10.93;;
12228;SDS011;6177;52.402;9.800;2022-11-20T03:00:10;12.33;;;11.03;;
12228;SDS011;6177;52.402;9.800;2022-11-20T03:02:55;12.80;;;11.50;;
12228;SDS011;6177;52.402;9.800;2022-11-20T03:05:44;12.23;;;11.03;;
12228;SDS011;6177;52.402;9.800;2022-11-20T03:08:28;12.87;;;11.57;;
12228;SDS011;6177;52.402;9.800;2022-11-20T03:11:13;12.80;;;11.50;;
12228;SDS011;6177;52.402;9.800;2022-11-20T03:14:01;12.33;;;11.13;;
12228;SDS011;6177;52.402;9.800;2022-11-20T03:16:46;13.50;;;12.17;;
12228;SDS011;6177;52.402;9.800;2022-11-20T03:19:31;13.40;;;12.10;;
12228;SDS011;6177;52.402;9.800;2022-11-20T03:22:16;13.50;;;12.20;;
12228;SDS011;6177;52.402;9.800;2022-11-20T03:25:00;13.67;;;12.27;;
12228;SDS011;6177;52.402;9.800;2022-11-20T03:27:45;13.23;;;11.93;;
12228;SDS011;6177;52.402;9.800;2022-11-20T03:30:29;13.10;;;11.80;;
12228;SDS011;6177;52.402;9.800;2022-11-20T03:33:14;12.70;;;11.50;;
12228;SDS011;6177;52.402;9.800;2022-11-20T03:36:03;13.43;;;12.03;;
12228;SDS011;6177;52.402;9.800;2022-11-20T03:38:49;14.27;;;11.93;;
12228;SDS011;6177;52.402;9.800;2022-11-20T03:41:40;13.10;;;11.80;;
12228;SDS011;6177;52.402;9.800;2022-11-20T03:44:25;13.00;;;11.70;;
12228;SDS011;6177;52.402;9.800;2022-11-20T03:47:10;13.83;;;12.37;;
12228;SDS011;6177;52.402;9.800;2022-11-20T03:49:55;12.70;;;11.50;;
12228;SDS011;6177;52.402;9.800;2022-11-20T03:52:39;13.13;;;11.83;;
12228;SDS011;6177;52.402;9.800;2022-11-20T03:55:24;12.33;;;11.23;;
12228;SDS011;6177;52.402;9.800;2022-11-20T03:58:09;12.97;;;11.77;;
12228;SDS011;6177;52.402;9.800;2022-11-20T04:00:54;13.10;;;11.70;;
12228;SDS011;6177;52.402;9.800;2022-11-20T04:03:39;14.43;;;12.50;;
12228;SDS011;6177;52.402;9.800;2022-11-20T04:06:27;13.00;;;11.63;;
12228;SDS011;6177;52.402;9.800;2022-11-20T04:09:13;12.80;;;11.43;;
12228;SDS011;6177;52.402;9.800;2022-11-20T04:11:57;13.17;;;11.87;;
12228;SDS011;6177;52.402;9.800;2022-11-20T04:14:42;13.20;;;11.07;;
12228;SDS011;6177;52.402;9.800;2022-11-20T04:17:27;14.13;;;12.60;;
12228;SDS011;6177;52.402;9.800;2022-11-20T04:20:11;12.17;;;10.97;;
12228;SDS011;6177;52.402;9.800;2022-11-20T04:22:56;13.33;;;11.97;;
12228;SDS011;6177;52.402;9.800;2022-11-20T04:25:40;12.73;;;11.33;;
12228;SDS011;6177;52.402;9.800;2022-11-20T04:28:25;13.40;;;11.67;;
12228;SDS011;6177;52.402;9.800;2022-11-20T04:31:14;12.37;;;11.17;;
12228;SDS011;6177;52.402;9.800;2022-11-20T04:34:01;13.53;;;12.23;;
12228;SDS011;6177;52.402;9.800;2022-11-20T04:36:46;12.70;;;11.50;;
12228;SDS011;6177;52.402;9.800;2022-11-20T04:39:31;12.10;;;10.57;;
12228;SDS011;6177;52.402;9.800;2022-11-20T04:42:15;12.20;;;11.07;;
12228;SDS011;6177;52.402;9.800;2022-11-20T04:45:12;11.93;;;10.83;;
12228;SDS011;6177;52.402;9.800;2022-11-20T04:47:56;11.70;;;10.70;;
12228;SDS011;6177;52.402;9.800;2022-11-20T04:50:41;10.60;;;9.60;;
12228;SDS011;6177;52.402;9.800;2022-11-20T04:53:25;12.17;;;10.80;;
12228;SDS011;6177;52.402;9.800;2022-11-20T04:56:11;11.07;;;10.00;;
12228;SDS011;6177;52.402;9.800;2022-11-20T04:58:59;11.23;;;10.13;;
12228;SDS011;6177;52.402;9.800;2022-11-20T05:01:45;10.67;;;9.57;;
12228;SDS011;6177;52.402;9.800;2022-11-20T05:04:30;12.90;;;11.10;;
12228;SDS011;6177;52.402;9.800;2022-11-20T05:07:14;11.50;;;10.30;;
12228;SDS011;6177;52.402;9.800;2022-11-20T05:09:59;12.00;;;10.97;;
12228;SDS011;6177;52.402;9.800;2022-11-20T05:12:43;12.10;;;10.90;;
12228;SDS011;6177;52.402;9.800;2022-11-20T05:15:28;12.20;;;10.93;;
12228;SDS011;6177;52.402;9.800;2022-11-20T05:18:13;10.77;;;9.83;;
12228;SDS011;6177;52.402;9.800;2022-11-20T05:20:57;11.20;;;10.20;;
12228;SDS011;6177;52.402;9.800;2022-11-20T05:23:42;12.10;;;11.00;;
12228;SDS011;6177;52.402;9.800;2022-11-20T05:26:27;12.00;;;10.80;;
12228;SDS011;6177;52.402;9.800;2022-11-20T05:29:11;12.20;;;11.03;;
12228;SDS011;6177;52.402;9.800;2022-11-20T05:31:56;11.50;;;10.40;;
12228;SDS011;6177;52.402;9.800;2022-11-20T05:34:41;11.40;;;10.30;;
12228;SDS011;6177;52.402;9.800;2022-11-20T05:37:26;11.53;;;10.37;;
12228;SDS011;6177;52.402;9.800;2022-11-20T05:40:10;11.47;;;10.07;;
12228;SDS011;6177;52.402;9.800;2022-11-20T05:42:55;11.90;;;10.70;;
12228;SDS011;6177;52.402;9.800;2022-11-20T05:45:40;12.07;;;10.87;;
12228;SDS011;6177;52.402;9.800;2022-11-20T05:48:24;10.97;;;9.87;;
12228;SDS011;6177;52.402;9.800;2022-11-20T05:51:10;11.40;;;10.30;;
12228;SDS011;6177;52.402;9.800;2022-11-20T05:53:56;11.27;;;10.10;;
12228;SDS011;6177;52.402;9.800;2022-11-20T05:56:42;10.77;;;9.77;;
12228;SDS011;6177;52.402;9.800;2022-11-20T05:59:26;11.30;;;10.10;;
12228;SDS011;6177;52.402;9.800;2022-11-20T06:02:11;11.60;;;10.40;;
12228;SDS011;6177;52.402;9.800;2022-11-20T06:04:56;11.40;;;10.30;;
12228;SDS011;6177;52.402;9.800;2022-11-20T06:07:40;10.37;;;9.37;;
12228;SDS011;6177;52.402;9.800;2022-11-20T06:10:25;11.77;;;10.57;;
12228;SDS011;6177;52.402;9.800;2022-11-20T06:13:10;11.00;;;9.90;;
12228;SDS011;6177;52.402;9.800;2022-11-20T06:15:54;10.77;;;9.70;;
12228;SDS011;6177;52.402;9.800;2022-11-20T06:18:39;10.53;;;9.53;;
12228;SDS011;6177;52.402;9.800;2022-11-20T06:21:23;11.27;;;10.17;;
12228;SDS011;6177;52.402;9.800;2022-11-20T06:24:09;12.00;;;10.77;;
12228;SDS011;6177;52.402;9.800;2022-11-20T06:26:54;10.80;;;9.87;;
12228;SDS011;6177;52.402;9.800;2022-11-20T06:29:39;11.20;;;10.10;;
12228;SDS011;6177;52.402;9.800;2022-11-20T06:32:23;11.47;;;10.37;;
12228;SDS011;6177;52.402;9.800;2022-11-20T06:35:08;10.80;;;9.77;;
12228;SDS011;6177;52.402;9.800;2022-11-20T06:37:52;11.60;;;10.50;;
12228;SDS011;6177;52.402;9.800;2022-11-20T06:40:39;10.43;;;9.43;;
12228;SDS011;6177;52.402;9.800;2022-11-20T06:43:24;10.53;;;9.63;;
12228;SDS011;6177;52.402;9.800;2022-11-20T06:46:12;9.57;;;8.73;;
12228;SDS011;6177;52.402;9.800;2022-11-20T06:48:58;10.70;;;9.50;;
12228;SDS011;6177;52.402;9.800;2022-11-20T06:51:42;9.87;;;8.97;;
12228;SDS011;6177;52.402;9.800;2022-11-20T06:54:27;11.33;;;10.13;;
12228;SDS011;6177;52.402;9.800;2022-11-20T06:57:11;10.73;;;9.80;;
12228;SDS011;6177;52.402;9.800;2022-11-20T06:59:56;11.03;;;9.93;;
12228;SDS011;6177;52.402;9.800;2022-11-20T07:02:41;10.63;;;9.57;;
12228;SDS011;6177;52.402;9.800;2022-11-20T07:05:25;11.37;;;10.17;;
12228;SDS011;6177;52.402;9.800;2022-11-20T07:08:10;10.43;;;9.43;;
12228;SDS011;6177;52.402;9.800;2022-11-20T07:10:59;11.20;;;10.17;;
12228;SDS011;6177;52.402;9.800;2022-11-20T07:13:45;11.17;;;10.13;;
12228;SDS011;6177;52.402;9.800;2022-11-20T07:16:30;9.93;;;9.00;;
12228;SDS011;6177;52.402;9.800;2022-11-20T07:19:14;10.57;;;9.60;;
12228;SDS011;6177;52.402;9.800;2022-11-20T07:21:59;10.60;;;9.53;;
12228;SDS011;6177;52.402;9.800;2022-11-20T07:24:43;10.23;;;9.23;;
12228;SDS011;6177;52.402;9.800;2022-11-20T07:27:27;10.50;;;9.43;;
12228;SDS011;6177;52.402;9.800;2022-11-20T07:30:13;9.90;;;9.00;;
12228;SDS011;6177;52.402;9.800;2022-11-20T07:32:58;11.33;;;10.23;;
12228;SDS011;6177;52.402;9.800;2022-11-20T07:35:43;10.60;;;9.60;;
12228;SDS011;6177;52.402;9.800;2022-11-20T07:38:27;10.63;;;9.57;;
12228;SDS011;6177;52.402;9.800;2022-11-20T07:41:12;9.97;;;9.17;;
12228;SDS011;6177;52.402;9.800;2022-11-20T07:43:57;10.30;;;9.30;;
12228;SDS011;6177;52.402;9.800;2022-11-20T07:46:41;10.83;;;9.83;;
12228;SDS011;6177;52.402;9.800;2022-11-20T07:49:26;10.40;;;9.50;;
12228;SDS011;6177;52.402;9.800;2022-11-20T07:52:10;10.40;;;9.47;;
12228;SDS011;6177;52.402;9.800;2022-11-20T07:54:55;10.17;;;9.10;;
12228;SDS011;6177;52.402;9.800;2022-11-20T07:57:40;9.90;;;9.00;;
12228;SDS011;6177;52.402;9.800;2022-11-20T08:00:25;10.47;;;9.43;;
12228;SDS011;6177;52.402;9.800;2022-11-20T08:03:10;9.83;;;8.97;;
12228;SDS011;6177;52.402;9.800;2022-11-20T08:05:57;9.90;;;8.90;;
12228;SDS011;6177;52.402;9.800;2022-11-20T08:08:43;9.60;;;8.67;;
12228;SDS011;6177;52.402;9.800;2022-11-20T08:11:28;10.20;;;9.30;;
12228;SDS011;6177;52.402;9.800;2022-11-20T08:14:31;10.90;;;9.50;;
12228;SDS011;6177;52.402;9.800;2022-11-20T08:17:15;9.67;;;8.83;;
12228;SDS011;6177;52.402;9.800;2022-11-20T08:20:00;10.57;;;9.63;;
12228;SDS011;6177;52.402;9.800;2022-11-20T08:22:45;10.17;;;9.27;;
12228;SDS011;6177;52.402;9.800;2022-11-20T08:25:29;10.37;;;9.43;;
12228;SDS011;6177;52.402;9.800;2022-11-20T08:28:14;9.30;;;8.53;;
12228;SDS011;6177;52.402;9.800;2022-11-20T08:30:59;10.03;;;9.13;;
12228;SDS011;6177;52.402;9.800;2022-11-20T08:33:45;10.07;;;9.07;;
12228;SDS011;6177;52.402;9.800;2022-11-20T08:36:32;10.17;;;9.37;;
12228;SDS011;6177;52.402;9.800;2022-11-20T08:39:17;10.20;;;9.23;;
12228;SDS011;6177;52.402;9.800;2022-11-20T08:42:06;10.43;;;9.43;;
12228;SDS011;6177;52.402;9.800;2022-11-20T08:44:51;10.10;;;9.20;;
12228;SDS011;6177;52.402;9.800;2022-11-20T08:47:36;10.83;;;9.47;;
12228;SDS011;6177;52.402;9.800;2022-11-20T08:50:20;9.60;;;8.77;;
12228;SDS011;6177;52.402;9.800;2022-11-20T08:53:05;10.40;;;9.50;;
12228;SDS011;6177;52.402;9.800;2022-11-20T08:55:50;10.20;;;9.20;;
12228;SDS011;6177;52.402;9.800;2022-11-20T08:58:34;10.23;;;9.33;;
12228;SDS011;6177;52.402;9.800;2022-11-20T09:01:19;10.27;;;9.37;;
12228;SDS011;6177;52.402;9.800;2022-11-20T09:04:05;11.00;;;10.00;;
12228;SDS011;6177;52.402;9.800;2022-11-20T09:06:49;11.77;;;9.87;;
12228;SDS011;6177;52.402;9.800;2022-11-20T09:09:34;10.43;;;9.57;;
12228;SDS011;6177;52.402;9.800;2022-11-20T09:12:19;10.30;;;9.30;;
12228;SDS011;6177;52.402;9.800;2022-11-20T09:15:04;9.40;;;8.57;;
12228;SDS011;6177;52.402;9.800;2022-11-20T09:17:56;9.73;;;8.90;;
12228;SDS011;6177;52.402;9.800;2022-11-20T09:20:42;10.13;;;9.23;;
12228;SDS011;6177;52.402;9.800;2022-11-20T09:23:27;9.93;;;8.97;;
12228;SDS011;6177;52.402;9.800;2022-11-20T09:26:14;9.23;;;8.50;;
12228;SDS011;6177;52.402;9.800;2022-11-20T09:28:59;10.00;;;9.20;;
12228;SDS011;6177;52.402;9.800;2022-11-20T09:31:44;9.50;;;8.70;;
12228;SDS011;6177;52.402;9.800;2022-11-20T09:34:28;10.40;;;9.50;;
12228;SDS011;6177;52.402;9.800;2022-11-20T09:37:13;10.33;;;9.43;;
12228;SDS011;6177;52.402;9.800;2022-11-20T09:39:57;10.23;;;9.37;;
12228;SDS011;6177;52.402;9.800;2022-11-20T09:42:47;10.20;;;9.30;;
12228;SDS011;6177;52.402;9.800;2022-11-20T09:52:21;8.83;;;7.97;;
12228;SDS011;6177;52.402;9.800;2022-11-20T09:55:16;9.30;;;8.43;;
12228;SDS011;6177;52.402;9.800;2022-11-20T09:58:01;10.03;;;9.23;;
12228;SDS011;6177;52.402;9.800;2022-11-20T10:00:49;10.03;;;8.77;;
12228;SDS011;6177;52.402;9.800;2022-11-20T10:06:44;9.40;;;8.60;;
12228;SDS011;6177;52.402;9.800;2022-11-20T10:09:35;8.67;;;7.97;;
12228;SDS011;6177;52.402;9.800;2022-11-20T10:18:21;8.70;;;8.00;;
12228;SDS011;6177;52.402;9.800;2022-11-20T10:30:24;8.00;;;7.40;;
12228;SDS011;6177;52.402;9.800;2022-11-20T10:38:56;5.90;;;5.50;;
12228;SDS011;6177;52.402;9.800;2022-11-20T10:42:03;6.30;;;5.90;;
12228;SDS011;6177;52.402;9.800;2022-11-20T10:44:58;6.37;;;5.87;;
12228;SDS011;6177;52.402;9.800;2022-11-20T10:54:32;6.33;;;5.83;;
12228;SDS011;6177;52.402;9.800;2022-11-20T11:00:26;5.20;;;4.80;;
12228;SDS011;6177;52.402;9.800;2022-11-20T11:06:58;6.00;;;5.50;;
12228;SDS011;6177;52.402;9.800;2022-11-20T11:09:25;5.37;;;5.07;;
12228;SDS011;6177;52.402;9.800;2022-11-20T11:12:20;5.47;;;5.07;;
12228;SDS011;6177;52.402;9.800;2022-11-20T11:15:11;5.73;;;5.33;;
12228;SDS011;6177;52.402;9.800;2022-11-20T11:17:59;5.23;;;4.73;;
12228;SDS011;6177;52.402;9.800;2022-11-20T11:20:49;5.90;;;5.47;;
12228;SDS011;6177;52.402;9.800;2022-11-20T11:26:23;5.53;;;5.13;;
12228;SDS011;6177;52.402;9.800;2022-11-20T11:29:15;6.23;;;5.70;;
12228;SDS011;6177;52.402;9.800;2022-11-20T11:32:11;5.87;;;5.37;;
12228;SDS011;6177;52.402;9.800;2022-11-20T11:34:58;5.70;;;5.30;;
12228;SDS011;6177;52.402;9.800;2022-11-20T11:37:47;6.57;;;5.97;;
12228;SDS011;6177;52.402;9.800;2022-11-20T11:40:33;6.60;;;6.10;;
12228;SDS011;6177;52.402;9.800;2022-11-20T11:43:21;6.40;;;5.97;;
12228;SDS011;6177;52.402;9.800;2022-11-20T11:46:28;6.53;;;6.07;;
12228;SDS011;6177;52.402;9.800;2022-11-20T11:49:16;7.33;;;6.63;;
12228;SDS011;6177;52.402;9.800;2022-11-20T11:52:09;6.53;;;6.03;;
12228;SDS011;6177;52.402;9.800;2022-11-20T11:55:01;7.07;;;6.47;;
12228;SDS011;6177;52.402;9.800;2022-11-20T12:13:53;8.10;;;7.50;;
12228;SDS011;6177;52.402;9.800;2022-11-20T12:16:41;7.80;;;7.10;;
12228;SDS011;6177;52.402;9.800;2022-11-20T12:19:26;8.43;;;7.73;;
12228;SDS011;6177;52.402;9.800;2022-11-20T12:25:10;8.20;;;7.50;;
12228;SDS011;6177;52.402;9.800;2022-11-20T12:28:16;8.63;;;7.83;;
12228;SDS011;6177;52.402;9.800;2022-11-20T12:34:47;8.50;;;7.77;;
12228;SDS011;6177;52.402;9.800;2022-11-20T12:41:11;7.80;;;7.20;;
12228;SDS011;6177;52.402;9.800;2022-11-20T12:48:13;7.53;;;6.93;;
12228;SDS011;6177;52.402;9.800;2022-11-20T12:51:49;8.30;;;7.60;;
12228;SDS011;6177;52.402;9.800;2022-11-20T13:00:20;8.37;;;7.67;;
12228;SDS011;6177;52.402;9.800;2022-11-20T13:03:31;9.20;;;8.40;;
12228;SDS011;6177;52.402;9.800;2022-11-20T13:06:23;8.87;;;7.97;;
12228;SDS011;6177;52.402;9.800;2022-11-20T13:09:11;8.40;;;7.70;;
12228;SDS011;6177;52.402;9.800;2022-11-20T13:12:04;9.30;;;8.47;;
12228;SDS011;6177;52.402;9.800;2022-11-20T13:17:48;8.97;;;8.10;;
12228;SDS011;6177;52.402;9.800;2022-11-20T13:20:44;9.20;;;8.30;;
12228;SDS011;6177;52.402;9.800;2022-11-20T13:23:30;9.30;;;8.50;;
12228;SDS011;6177;52.402;9.800;2022-11-20T13:26:22;9.33;;;8.53;;
12228;SDS011;6177;52.402;9.800;2022-11-20T13:29:09;9.33;;;8.47;;
12228;SDS011;6177;52.402;9.800;2022-11-20T13:32:07;9.53;;;8.67;;
12228;SDS011;6177;52.402;9.800;2022-11-20T13:35:00;9.27;;;8.47;;
12228;SDS011;6177;52.402;9.800;2022-11-20T13:37:48;10.20;;;9.27;;
12228;SDS011;6177;52.402;9.800;2022-11-20T13:43:42;9.67;;;8.70;;
12228;SDS011;6177;52.402;9.800;2022-11-20T13:46:36;10.50;;;9.37;;
12228;SDS011;6177;52.402;9.800;2022-11-20T13:52:43;9.77;;;8.97;;
12228;SDS011;6177;52.402;9.800;2022-11-20T13:56:16;9.20;;;8.40;;
12228;SDS011;6177;52.402;9.800;2022-11-20T13:59:32;9.20;;;8.30;;
12228;SDS011;6177;52.402;9.800;2022-11-20T14:02:26;9.47;;;8.67;;
12228;SDS011;6177;52.402;9.800;2022-11-20T14:05:22;10.10;;;9.20;;
12228;SDS011;6177;52.402;9.800;2022-11-20T14:08:12;10.83;;;9.27;;
12228;SDS011;6177;52.402;9.800;2022-11-20T14:11:05;12.63;;;11.33;;
12228;SDS011;6177;52.402;9.800;2022-11-20T14:14:03;12.53;;;11.23;;
12228;SDS011;6177;52.402;9.800;2022-11-20T14:17:06;12.13;;;10.93;;
12228;SDS011;6177;52.402;9.800;2022-11-20T14:20:12;11.40;;;10.30;;
12228;SDS011;6177;52.402;9.800;2022-11-20T14:22:59;11.83;;;10.73;;
12228;SDS011;6177;52.402;9.800;2022-11-20T14:25:43;21.67;;;16.20;;
12228;SDS011;6177;52.402;9.800;2022-11-20T14:28:30;15.57;;;13.90;;
12228;SDS011;6177;52.402;9.800;2022-11-20T14:31:21;13.67;;;12.40;;
12228;SDS011;6177;52.402;9.800;2022-11-20T14:34:15;12.47;;;11.17;;
12228;SDS011;6177;52.402;9.800;2022-11-20T14:37:04;11.83;;;10.73;;
12228;SDS011;6177;52.402;9.800;2022-11-20T14:39:54;10.47;;;9.53;;
12228;SDS011;6177;52.402;9.800;2022-11-20T14:42:43;11.10;;;10.10;;
12228;SDS011;6177;52.402;9.800;2022-11-20T14:45:27;11.57;;;10.43;;
12228;SDS011;6177;52.402;9.800;2022-11-20T14:48:12;11.27;;;10.17;;
12228;SDS011;6177;52.402;9.800;2022-11-20T14:50:57;12.20;;;10.90;;
12228;SDS011;6177;52.402;9.800;2022-11-20T14:53:41;12.07;;;10.87;;
12228;SDS011;6177;52.402;9.800;2022-11-20T14:56:26;13.43;;;10.80;;
12228;SDS011;6177;52.402;9.800;2022-11-20T14:59:11;11.87;;;10.70;;
12228;SDS011;6177;52.402;9.800;2022-11-20T15:02:08;16.37;;;14.40;;
12228;SDS011;6177;52.402;9.800;2022-11-20T15:04:58;16.37;;;14.67;;
12228;SDS011;6177;52.402;9.800;2022-11-20T15:07:48;13.97;;;12.67;;
12228;SDS011;6177;52.402;9.800;2022-11-20T15:10:34;12.80;;;11.53;;
12228;SDS011;6177;52.402;9.800;2022-11-20T15:16:24;12.10;;;10.90;;
12228;SDS011;6177;52.402;9.800;2022-11-20T15:19:17;11.77;;;10.67;;
12228;SDS011;6177;52.402;9.800;2022-11-20T15:22:04;13.07;;;11.77;;
12228;SDS011;6177;52.402;9.800;2022-11-20T15:24:53;13.30;;;11.87;;
12228;SDS011;6177;52.402;9.800;2022-11-20T15:27:38;11.70;;;10.60;;
12228;SDS011;6177;52.402;9.800;2022-11-20T15:30:23;12.90;;;11.70;;
12228;SDS011;6177;52.402;9.800;2022-11-20T15:33:08;12.23;;;11.07;;
12228;SDS011;6177;52.402;9.800;2022-11-20T15:35:53;13.13;;;11.87;;
12228;SDS011;6177;52.402;9.800;2022-11-20T15:38:38;13.10;;;11.67;;
12228;SDS011;6177;52.402;9.800;2022-11-20T15:41:23;12.93;;;11.63;;
12228;SDS011;6177;52.402;9.800;2022-11-20T15:44:07;13.37;;;11.97;;
12228;SDS011;6177;52.402;9.800;2022-11-20T15:46:52;14.20;;;12.83;;
12228;SDS011;6177;52.402;9.800;2022-11-20T15:49:36;13.00;;;11.67;;
12228;SDS011;6177;52.402;9.800;2022-11-20T15:52:21;12.63;;;11.33;;
12228;SDS011;6177;52.402;9.800;2022-11-20T15:55:08;14.00;;;12.60;;
12228;SDS011;6177;52.402;9.800;2022-11-20T15:57:54;13.23;;;12.03;;
12228;SDS011;6177;52.402;9.800;2022-11-20T16:00:39;14.67;;;13.17;;
12228;SDS011;6177;52.402;9.800;2022-11-20T16:03:23;14.00;;;12.77;;
12228;SDS011;6177;52.402;9.800;2022-11-20T16:06:08;13.70;;;12.30;;
12228;SDS011;6177;52.402;9.800;2022-11-20T16:08:53;15.13;;;13.63;;
12228;SDS011;6177;52.402;9.800;2022-11-20T16:11:38;15.13;;;13.63;;
12228;SDS011;6177;52.402;9.800;2022-11-20T16:14:22;14.50;;;13.17;;
12228;SDS011;6177;52.402;9.800;2022-11-20T16:17:25;15.43;;;13.83;;
12228;SDS011;6177;52.402;9.800;2022-11-20T16:20:26;16.83;;;15.13;;
12228;SDS011;6177;52.402;9.800;2022-11-20T16:23:10;15.33;;;13.83;;
12228;SDS011;6177;52.402;9.800;2022-11-20T16:25:55;15.40;;;13.87;;
12228;SDS011;6177;52.402;9.800;2022-11-20T16:28:40;15.50;;;13.93;;
12228;SDS011;6177;52.402;9.800;2022-11-20T16:31:25;16.60;;;15.00;;
12228;SDS011;6177;52.402;9.800;2022-11-20T16:34:09;18.87;;;16.90;;
12228;SDS011;6177;52.402;9.800;2022-11-20T16:36:54;16.07;;;14.33;;
12228;SDS011;6177;52.402;9.800;2022-11-20T16:39:38;21.53;;;19.33;;
12228;SDS011;6177;52.402;9.800;2022-11-20T16:42:23;18.53;;;16.67;;
12228;SDS011;6177;52.402;9.800;2022-11-20T16:45:08;18.87;;;17.00;;
12228;SDS011;6177;52.402;9.800;2022-11-20T16:47:53;45.10;;;31.87;;
12228;SDS011;6177;52.402;9.800;2022-11-20T16:50:41;20.67;;;18.47;;
12228;SDS011;6177;52.402;9.800;2022-11-20T16:53:33;24.90;;;21.03;;
12228;SDS011;6177;52.402;9.800;2022-11-20T16:56:18;22.70;;;20.30;;
12228;SDS011;6177;52.402;9.800;2022-11-20T16:59:04;25.40;;;23.00;;
12228;SDS011;6177;52.402;9.800;2022-11-20T17:01:50;25.37;;;22.77;;
12228;SDS011;6177;52.402;9.800;2022-11-20T17:04:34;26.23;;;23.47;;
12228;SDS011;6177;52.402;9.800;2022-11-20T17:07:19;26.70;;;22.83;;
12228;SDS011;6177;52.402;9.800;2022-11-20T17:10:04;25.30;;;22.70;;
12228;SDS011;6177;52.402;9.800;2022-11-20T17:12:49;27.30;;;24.33;;
12228;SDS011;6177;52.402;9.800;2022-11-20T17:15:34;27.00;;;24.20;;
12228;SDS011;6177;52.402;9.800;2022-11-20T17:18:18;28.27;;;24.33;;
12228;SDS011;6177;52.402;9.800;2022-11-20T17:21:03;26.13;;;23.43;;
12228;SDS011;6177;52.402;9.800;2022-11-20T17:23:48;25.73;;;22.93;;
12228;SDS011;6177;52.402;9.800;2022-11-20T17:26:33;24.80;;;21.70;;
12228;SDS011;6177;52.402;9.800;2022-11-20T17:29:18;29.07;;;25.30;;
12228;SDS011;6177;52.402;9.800;2022-11-20T17:32:07;29.53;;;24.70;;
12228;SDS011;6177;52.402;9.800;2022-11-20T17:34:51;32.67;;;27.90;;
12228;SDS011;6177;52.402;9.800;2022-11-20T17:37:36;33.30;;;28.73;;
12228;SDS011;6177;52.402;9.800;2022-11-20T17:40:20;27.73;;;24.77;;
12228;SDS011;6177;52.402;9.800;2022-11-20T17:43:05;25.90;;;23.17;;
12228;SDS011;6177;52.402;9.800;2022-11-20T17:45:50;27.10;;;22.97;;
12228;SDS011;6177;52.402;9.800;2022-11-20T17:48:34;24.00;;;21.47;;
12228;SDS011;6177;52.402;9.800;2022-11-20T17:51:21;21.60;;;19.37;;
12228;SDS011;6177;52.402;9.800;2022-11-20T17:54:09;22.17;;;19.77;;
12228;SDS011;6177;52.402;9.800;2022-11-20T17:56:54;22.00;;;19.60;;
12228;SDS011;6177;52.402;9.800;2022-11-20T17:59:57;22.70;;;19.50;;
12228;SDS011;6177;52.402;9.800;2022-11-20T18:02:41;27.20;;;23.17;;
12228;SDS011;6177;52.402;9.800;2022-11-20T18:05:26;23.13;;;20.73;;
12228;SDS011;6177;52.402;9.800;2022-11-20T18:08:10;26.47;;;22.17;;
12228;SDS011;6177;52.402;9.800;2022-11-20T18:10:55;25.07;;;22.30;;
12228;SDS011;6177;52.402;9.800;2022-11-20T18:13:40;22.20;;;20.00;;
12228;SDS011;6177;52.402;9.800;2022-11-20T18:16:49;21.80;;;19.47;;
12228;SDS011;6177;52.402;9.800;2022-11-20T18:19:37;22.50;;;20.00;;
12228;SDS011;6177;52.402;9.800;2022-11-20T18:22:23;23.00;;;20.53;;
12228;SDS011;6177;52.402;9.800;2022-11-20T18:25:08;24.63;;;21.63;;